createdAt,value
2022-10-11T00:02:14.657Z,12.70
2022-10-11T00:04:43.767Z,12.60
2022-10-11T00:07:11.873Z,12.60
2022-10-11T00:09:39.854Z,12.60
2022-10-11T00:12:08.025Z,12.60
2022-10-11T00:14:36.314Z,12.60
2022-10-11T00:17:04.231Z,12.60
2022-10-11T00:19:32.792Z,12.60
2022-10-11T00:22:01.943Z,12.60
2022-10-11T00:24:29.752Z,12.50
2022-10-11T00:26:57.574Z,12.50
2022-10-11T00:29:25.365Z,12.50
2022-10-11T00:31:53.156Z,12.50
2022-10-11T00:34:20.955Z,12.50
2022-10-11T00:36:49.038Z,12.60
2022-10-11T00:39:18.273Z,12.50
2022-10-11T00:41:47.758Z,12.50
2022-10-11T00:44:17.735Z,12.40
2022-10-11T00:46:54.984Z,12.40
2022-10-11T00:49:31.181Z,12.30
2022-10-11T00:52:03.500Z,12.30
2022-10-11T00:54:37.131Z,12.30
2022-10-11T00:57:09.038Z,12.30
2022-10-11T00:59:40.729Z,12.30
2022-10-11T01:02:09.690Z,12.30
2022-10-11T01:04:37.552Z,12.20
2022-10-11T01:07:05.441Z,12.20
2022-10-11T01:09:35.004Z,12.20
2022-10-11T01:12:05.744Z,12.20
2022-10-11T01:15:01.797Z,12.10
2022-10-11T01:17:36.775Z,12.10
2022-10-11T01:20:31.922Z,12.00
2022-10-11T01:23:25.664Z,12.00
2022-10-11T01:26:10.822Z,12.00
2022-10-11T01:28:50.274Z,11.90
2022-10-11T01:31:26.378Z,11.90
2022-10-11T01:33:56.644Z,11.80
2022-10-11T01:36:31.589Z,11.80
2022-10-11T01:39:04.362Z,11.80
2022-10-11T01:41:38.168Z,11.70
2022-10-11T01:44:07.558Z,11.60
2022-10-11T01:46:37.930Z,11.60
2022-10-11T01:49:06.777Z,11.60
2022-10-11T01:52:30.052Z,11.50
2022-10-11T01:55:12.265Z,11.40
2022-10-11T01:57:54.364Z,11.40
2022-10-11T02:00:24.052Z,11.40
2022-10-11T02:03:10.120Z,11.30
2022-10-11T02:05:49.074Z,11.20
2022-10-11T02:08:22.574Z,11.10
2022-10-11T02:10:56.906Z,11.00
2022-10-11T02:13:29.507Z,10.90
2022-10-11T02:16:02.225Z,10.80
2022-10-11T02:18:36.157Z,10.70
2022-10-11T02:21:08.613Z,10.60
2022-10-11T02:23:41.120Z,10.50
2022-10-11T02:26:11.512Z,10.40
2022-10-11T02:28:42.665Z,10.30
2022-10-11T02:31:12.067Z,10.30
2022-10-11T02:33:45.923Z,10.30
2022-10-11T02:36:21.959Z,10.30
2022-10-11T02:38:54.140Z,10.20
2022-10-11T02:41:28.266Z,10.20
2022-10-11T02:44:00.017Z,10.30
2022-10-11T02:46:30.446Z,10.30
2022-10-11T02:49:00.676Z,10.30
2022-10-11T02:51:31.551Z,10.20
2022-10-11T02:53:59.402Z,10.20
2022-10-11T02:56:27.321Z,10.20
2022-10-11T02:58:55.090Z,10.20
2022-10-11T03:01:22.944Z,10.20
2022-10-11T03:03:50.794Z,10.30
2022-10-11T03:06:19.986Z,10.30
2022-10-11T03:08:47.792Z,10.40
2022-10-11T03:11:15.627Z,10.40
2022-10-11T03:13:43.401Z,10.40
2022-10-11T03:16:11.499Z,10.40
2022-10-11T03:18:39.365Z,10.40
2022-10-11T03:21:07.206Z,10.40
2022-10-11T03:23:36.498Z,10.50
2022-10-11T03:26:04.760Z,10.50
2022-10-11T03:28:33.024Z,10.60
2022-10-11T03:31:00.902Z,10.60
2022-10-11T03:33:28.670Z,10.70
2022-10-11T03:35:56.490Z,10.70
2022-10-11T03:38:24.283Z,10.60
2022-10-11T03:40:53.421Z,10.60
2022-10-11T03:43:21.185Z,10.70
2022-10-11T03:45:49.027Z,10.70
2022-10-11T03:48:16.833Z,10.70
2022-10-11T03:50:44.618Z,10.70
2022-10-11T03:53:12.589Z,10.80
2022-10-11T03:55:41.312Z,10.70
2022-10-11T03:58:10.496Z,10.70
2022-10-11T04:00:38.501Z,10.70
2022-10-11T04:03:06.414Z,10.80
2022-10-11T04:05:34.196Z,10.90
2022-10-11T04:08:02.007Z,11.00
2022-10-11T04:10:31.029Z,10.90
2022-10-11T04:12:58.970Z,10.90
2022-10-11T04:15:28.101Z,10.90
2022-10-11T04:17:55.937Z,10.90
2022-10-11T04:20:23.803Z,10.90
2022-10-11T04:22:51.625Z,10.90
2022-10-11T04:25:19.537Z,10.90
2022-10-11T04:27:47.397Z,11.00
2022-10-11T04:30:16.178Z,11.00
2022-10-11T04:32:45.454Z,11.00
2022-10-11T04:35:13.301Z,11.00
2022-10-11T04:37:41.185Z,11.00
2022-10-11T04:40:10.178Z,11.00
2022-10-11T04:42:38.006Z,11.00
2022-10-11T04:45:06.867Z,11.10
2022-10-11T04:47:34.686Z,11.10
2022-10-11T04:50:03.985Z,11.10
2022-10-11T04:52:31.784Z,11.10
2022-10-11T04:55:01.190Z,11.10
2022-10-11T04:57:28.996Z,11.10
2022-10-11T04:59:56.754Z,11.10
2022-10-11T05:02:24.581Z,11.10
2022-10-11T05:04:52.435Z,11.10
2022-10-11T05:07:21.543Z,11.20
2022-10-11T05:09:49.305Z,11.20
2022-10-11T05:12:17.097Z,11.20
2022-10-11T05:14:44.889Z,11.20
2022-10-11T05:17:12.713Z,11.20
2022-10-11T05:19:40.496Z,11.30
2022-10-11T05:22:08.271Z,11.30
2022-10-11T05:24:37.686Z,11.30
2022-10-11T05:27:05.462Z,11.40
2022-10-11T05:29:33.292Z,11.40
2022-10-11T05:32:01.130Z,11.40
2022-10-11T05:34:29.037Z,11.30
2022-10-11T05:36:57.418Z,11.40
2022-10-11T05:39:25.250Z,11.40
2022-10-11T05:41:54.532Z,11.30
2022-10-11T05:44:22.329Z,11.30
2022-10-11T05:46:50.116Z,11.30
2022-10-11T05:49:17.890Z,11.30
2022-10-11T05:51:45.746Z,11.40
2022-10-11T05:54:13.520Z,11.40
2022-10-11T05:56:41.346Z,11.50
2022-10-11T05:59:10.520Z,11.50
2022-10-11T06:01:38.465Z,11.50
2022-10-11T06:04:06.702Z,11.50
2022-10-11T06:06:34.823Z,11.50
2022-10-11T06:09:02.690Z,11.50
2022-10-11T06:11:30.541Z,11.50
2022-10-11T06:13:59.149Z,11.50
2022-10-11T06:16:28.487Z,11.50
2022-10-11T06:18:57.290Z,11.50
2022-10-11T06:21:25.745Z,11.50
2022-10-11T06:23:59.893Z,11.50
2022-10-11T06:26:28.932Z,11.50
2022-10-11T06:28:56.796Z,11.60
2022-10-11T06:31:24.687Z,11.60
2022-10-11T06:33:53.808Z,11.60
2022-10-11T06:36:21.601Z,11.60
2022-10-11T06:38:52.466Z,11.60
2022-10-11T06:41:23.337Z,11.60
2022-10-11T06:43:51.370Z,11.60
2022-10-11T06:46:20.247Z,11.60
2022-10-11T06:48:49.260Z,11.70
2022-10-11T06:51:20.657Z,11.70
2022-10-11T06:53:50.640Z,11.70
2022-10-11T06:56:19.446Z,11.70
2022-10-11T06:58:47.312Z,11.70
2022-10-11T07:01:18.963Z,11.70
2022-10-11T07:03:47.239Z,11.70
2022-10-11T07:06:17.375Z,11.70
2022-10-11T07:08:46.779Z,11.70
2022-10-11T07:11:16.014Z,11.70
2022-10-11T07:13:43.820Z,11.60
2022-10-11T07:16:13.256Z,11.70
2022-10-11T07:18:41.073Z,11.70
2022-10-11T07:21:11.910Z,11.60
2022-10-11T07:23:39.680Z,11.70
2022-10-11T07:26:10.892Z,11.70
2022-10-11T07:28:39.307Z,11.70
2022-10-11T07:31:08.255Z,11.80
2022-10-11T07:33:36.132Z,11.70
2022-10-11T07:36:05.096Z,11.80
2022-10-11T07:38:33.077Z,11.80
2022-10-11T07:41:05.273Z,11.80
2022-10-11T07:43:34.501Z,11.80
2022-10-11T07:46:04.647Z,11.90
2022-10-11T07:48:33.680Z,11.90
2022-10-11T07:51:06.775Z,11.90
2022-10-11T07:53:39.665Z,11.90
2022-10-11T07:56:08.738Z,11.90
2022-10-11T07:58:38.168Z,11.90
2022-10-11T08:01:06.722Z,11.90
2022-10-11T08:03:34.556Z,11.90
2022-10-11T08:06:03.184Z,11.90
2022-10-11T08:08:31.501Z,11.90
2022-10-11T08:11:29.707Z,11.90
2022-10-11T08:14:00.368Z,11.80
2022-10-11T08:16:28.395Z,11.90
2022-10-11T08:18:56.967Z,11.80
2022-10-11T08:21:26.685Z,11.80
2022-10-11T08:23:54.497Z,11.70
2022-10-11T08:26:22.969Z,11.80
2022-10-11T08:28:50.834Z,11.80
2022-10-11T08:31:19.991Z,11.80
2022-10-11T08:33:47.874Z,11.90
2022-10-11T08:36:15.757Z,11.80
2022-10-11T08:38:43.540Z,11.80
2022-10-11T08:41:30.673Z,11.80
2022-10-11T08:44:20.962Z,11.90
2022-10-11T08:46:58.181Z,11.90
2022-10-11T08:49:31.216Z,11.90
2022-10-11T08:52:04.475Z,11.90
2022-10-11T08:54:42.971Z,11.80
2022-10-11T08:57:15.116Z,11.80
2022-10-11T08:59:46.719Z,11.90
2022-10-11T09:02:25.121Z,11.90
2022-10-11T09:04:54.744Z,11.90
2022-10-11T09:07:32.600Z,12.00
2022-10-11T09:10:15.413Z,12.00
2022-10-11T09:12:50.208Z,12.00
2022-10-11T09:15:26.143Z,11.90
2022-10-11T09:18:15.762Z,11.90
2022-10-11T09:21:08.205Z,11.90
2022-10-11T09:23:49.253Z,12.00
2022-10-11T09:26:22.925Z,12.10
2022-10-11T09:29:01.433Z,12.00
2022-10-11T09:31:30.587Z,12.10
2022-10-11T09:34:06.733Z,12.20
2022-10-11T09:36:42.205Z,12.20
2022-10-11T09:39:25.761Z,12.20
2022-10-11T09:41:57.813Z,12.20
2022-10-11T09:44:28.497Z,12.20
2022-10-11T09:46:57.786Z,12.10
2022-10-11T09:49:41.264Z,12.10
2022-10-11T09:52:16.451Z,12.20
2022-10-11T09:54:46.742Z,12.20
2022-10-11T09:57:23.632Z,12.30
2022-10-11T10:00:05.587Z,12.20
2022-10-11T10:02:41.667Z,12.20
2022-10-11T10:05:20.990Z,12.30
2022-10-11T10:08:24.396Z,12.30
2022-10-11T10:11:01.106Z,12.30
2022-10-11T10:13:41.942Z,12.40
2022-10-11T10:16:21.332Z,12.40
2022-10-11T10:18:53.245Z,12.50
2022-10-11T10:21:29.219Z,12.50
2022-10-11T10:23:59.970Z,12.60
2022-10-11T10:26:27.923Z,12.50
2022-10-11T10:28:59.429Z,12.50
2022-10-11T10:31:44.463Z,12.40
2022-10-11T10:34:26.768Z,12.50
2022-10-11T10:37:00.054Z,12.60
2022-10-11T10:39:34.976Z,12.70
2022-10-11T10:42:06.143Z,12.80
2022-10-11T10:44:33.984Z,12.90
2022-10-11T10:47:11.430Z,13.00
2022-10-11T10:49:54.419Z,13.10
2022-10-11T10:52:48.667Z,13.20
2022-10-11T10:55:26.497Z,13.30
2022-10-11T10:58:07.158Z,13.40
2022-10-11T11:00:42.407Z,13.50
2022-10-11T11:03:21.733Z,13.60
2022-10-11T11:05:58.506Z,13.60
2022-10-11T11:08:42.385Z,13.60
2022-10-11T11:11:31.570Z,13.80
2022-10-11T11:14:04.228Z,13.90
2022-10-11T11:16:38.476Z,14.00
2022-10-11T11:19:26.723Z,14.00
2022-10-11T11:22:01.524Z,14.10
2022-10-11T11:24:40.920Z,14.20
2022-10-11T11:27:20.187Z,14.20
2022-10-11T11:29:55.674Z,14.20
2022-10-11T11:32:34.299Z,14.40
2022-10-11T11:35:04.722Z,14.50
2022-10-11T11:37:36.739Z,14.70
2022-10-11T11:40:14.769Z,14.70
2022-10-11T11:42:47.767Z,14.70
2022-10-11T11:45:22.203Z,14.70
2022-10-11T11:47:55.932Z,14.70
2022-10-11T11:50:27.342Z,14.60
2022-10-11T11:52:59.005Z,14.60
2022-10-11T11:55:33.776Z,14.60
2022-10-11T11:58:24.667Z,14.60
2022-10-11T12:01:03.749Z,14.70
2022-10-11T12:03:39.293Z,14.70
2022-10-11T12:06:27.050Z,14.70
2022-10-11T12:09:08.785Z,14.60
2022-10-11T12:11:51.267Z,14.60
2022-10-11T12:14:27.543Z,14.40
2022-10-11T12:17:20.478Z,14.10
2022-10-11T12:20:17.252Z,14.00
2022-10-11T12:23:00.100Z,14.00
2022-10-11T12:25:46.496Z,13.80
2022-10-11T12:28:54.870Z,13.70
2022-10-11T12:31:25.659Z,13.90
2022-10-11T12:34:06.456Z,14.10
2022-10-11T12:36:40.592Z,14.20
2022-10-11T12:39:43.944Z,14.20
2022-10-11T12:42:29.391Z,14.30
2022-10-11T12:45:33.621Z,14.30
2022-10-11T12:48:27.427Z,14.30
2022-10-11T12:51:10.221Z,14.40
2022-10-11T12:54:25.950Z,14.50
2022-10-11T12:57:12.936Z,14.40
2022-10-11T12:59:45.042Z,14.40
2022-10-11T13:02:28.730Z,14.50
2022-10-11T13:05:08.796Z,14.50
2022-10-11T13:07:37.050Z,14.40
2022-10-11T13:10:06.500Z,14.60
2022-10-11T13:12:41.713Z,14.60
2022-10-11T13:15:15.884Z,14.60
2022-10-11T13:17:44.300Z,14.70
2022-10-11T13:20:20.123Z,14.60
2022-10-11T13:22:49.700Z,14.60
2022-10-11T13:25:19.700Z,14.60
2022-10-11T13:27:48.200Z,14.50
2022-10-11T13:30:20.543Z,14.50
2022-10-11T13:32:48.925Z,14.40
2022-10-11T13:35:24.765Z,14.40
2022-10-11T13:37:52.841Z,14.20
2022-10-11T13:40:22.269Z,14.30
2022-10-11T13:42:51.994Z,14.20
2022-10-11T13:45:22.364Z,14.20
2022-10-11T13:47:51.473Z,14.20
2022-10-11T13:50:31.602Z,14.20
2022-10-11T13:53:01.498Z,14.20
2022-10-11T13:55:32.794Z,14.10
2022-10-11T13:58:02.704Z,14.10
2022-10-11T14:00:33.434Z,14.10
2022-10-11T14:03:04.795Z,13.90
2022-10-11T14:05:37.574Z,13.70
2022-10-11T14:08:08.444Z,13.80
2022-10-11T14:10:36.526Z,13.60
2022-10-11T14:13:22.580Z,13.60
2022-10-11T14:16:00.395Z,13.60
2022-10-11T14:18:42.769Z,13.70
2022-10-11T14:21:33.016Z,13.60
2022-10-11T14:24:02.681Z,13.80
2022-10-11T14:26:35.337Z,13.90
2022-10-11T14:29:07.532Z,13.80
2022-10-11T14:31:40.568Z,13.70
2022-10-11T14:34:13.348Z,13.80
2022-10-11T14:36:42.459Z,13.70
2022-10-11T14:39:14.839Z,13.70
2022-10-11T14:41:42.674Z,13.60
2022-10-11T14:44:10.620Z,13.60
2022-10-11T14:46:40.759Z,13.50
2022-10-11T14:49:14.427Z,13.50
2022-10-11T14:51:44.512Z,13.40
2022-10-11T14:54:12.477Z,13.40
2022-10-11T14:56:40.446Z,13.40
2022-10-11T14:59:08.367Z,13.40
2022-10-11T15:01:36.420Z,13.30
2022-10-11T15:04:04.261Z,13.30
2022-10-11T15:06:35.547Z,13.30
2022-10-11T15:09:04.857Z,13.30
2022-10-11T15:11:33.103Z,13.30
2022-10-11T15:14:00.898Z,13.30
2022-10-11T15:16:28.711Z,13.30
2022-10-11T15:18:56.596Z,13.30
2022-10-11T15:21:27.093Z,13.40
2022-10-11T15:23:55.911Z,13.20
2022-10-11T15:26:26.808Z,13.30
2022-10-11T15:28:56.127Z,13.30
2022-10-11T15:31:24.456Z,13.40
2022-10-11T15:33:52.430Z,13.30
2022-10-11T15:36:22.397Z,13.30
2022-10-11T15:38:50.540Z,13.30
2022-10-11T15:41:20.459Z,13.20
2022-10-11T15:43:50.143Z,13.20
2022-10-11T15:46:21.997Z,13.20
2022-10-11T15:48:50.494Z,13.20
2022-10-11T15:51:18.774Z,13.10
2022-10-11T15:53:46.780Z,13.10
2022-10-11T15:56:18.582Z,13.10
2022-10-11T15:58:46.893Z,13.10
2022-10-11T16:01:18.699Z,13.00
2022-10-11T16:03:47.416Z,13.00
2022-10-11T16:06:15.227Z,13.00
2022-10-11T16:08:42.999Z,13.00
2022-10-11T16:11:13.583Z,13.00
2022-10-11T16:13:41.636Z,13.00
2022-10-11T16:16:10.746Z,13.00
2022-10-11T16:18:40.286Z,13.00
2022-10-11T16:21:10.323Z,12.90
2022-10-11T16:23:38.660Z,12.90
2022-10-11T16:26:09.762Z,12.80
2022-10-11T16:28:38.077Z,12.80
2022-10-11T16:31:09.312Z,12.80
2022-10-11T16:33:45.299Z,12.80
2022-10-11T16:36:36.283Z,12.80
2022-10-11T16:39:07.991Z,12.70
2022-10-11T16:41:35.816Z,12.70
2022-10-11T16:44:04.946Z,12.70
2022-10-11T16:46:33.576Z,12.70
2022-10-11T16:49:01.375Z,12.70
2022-10-11T16:51:30.547Z,12.60
2022-10-11T16:53:58.510Z,12.60
2022-10-11T16:56:26.365Z,12.60
2022-10-11T16:58:54.841Z,12.60
2022-10-11T17:01:23.020Z,12.70
2022-10-11T17:03:51.601Z,12.70
2022-10-11T17:06:20.165Z,12.60
2022-10-11T17:08:49.419Z,12.60
2022-10-11T17:11:18.034Z,12.60
2022-10-11T17:13:46.141Z,12.60
2022-10-11T17:16:13.998Z,12.60
2022-10-11T17:18:41.756Z,12.50
2022-10-11T17:21:12.837Z,12.50
2022-10-11T17:23:46.483Z,12.50
2022-10-11T17:26:19.071Z,12.50
2022-10-11T17:28:47.319Z,12.50
2022-10-11T17:31:15.243Z,12.50
2022-10-11T17:33:43.280Z,12.40
2022-10-11T17:36:17.636Z,12.40
2022-10-11T17:38:45.511Z,12.40
2022-10-11T17:41:13.564Z,12.40
2022-10-11T17:43:42.811Z,12.30
2022-10-11T17:46:12.907Z,12.30
2022-10-11T17:48:41.129Z,12.30
2022-10-11T17:51:10.283Z,12.30
2022-10-11T17:53:38.602Z,12.40
2022-10-11T17:56:08.082Z,12.30
2022-10-11T17:58:35.952Z,12.30
2022-10-11T18:01:07.335Z,12.30
2022-10-11T18:03:35.645Z,12.30
2022-10-11T18:06:04.688Z,12.20
2022-10-11T18:08:36.420Z,12.20
2022-10-11T18:11:11.508Z,12.20
2022-10-11T18:13:42.393Z,12.20
2022-10-11T18:16:11.952Z,12.10
2022-10-11T18:18:40.404Z,12.10
2022-10-11T18:21:08.286Z,12.10
2022-10-11T18:23:37.271Z,12.10
2022-10-11T18:26:10.732Z,12.00
2022-10-11T18:28:38.600Z,12.00
2022-10-11T18:31:12.566Z,12.00
2022-10-11T18:33:45.386Z,11.90
2022-10-11T18:36:14.925Z,11.90
2022-10-11T18:38:46.289Z,11.90
2022-10-11T18:41:16.755Z,11.90
2022-10-11T18:43:49.016Z,11.90
2022-10-11T18:46:16.910Z,11.90
2022-10-11T18:48:47.800Z,11.90
2022-10-11T18:51:19.212Z,11.90
2022-10-11T18:53:47.721Z,11.80
2022-10-11T18:56:18.003Z,11.90
2022-10-11T18:58:45.930Z,11.80
2022-10-11T19:01:16.878Z,11.90
2022-10-11T19:03:47.303Z,11.90
2022-10-11T19:06:18.564Z,11.90
2022-10-11T19:08:47.144Z,11.90
2022-10-11T19:11:16.890Z,11.90
2022-10-11T19:13:45.013Z,11.80
2022-10-11T19:16:15.113Z,11.90
2022-10-11T19:18:44.440Z,11.80
2022-10-11T19:21:14.447Z,11.80
2022-10-11T19:23:44.293Z,11.80
2022-10-11T19:26:16.006Z,11.80
2022-10-11T19:28:44.254Z,11.80
2022-10-11T19:31:16.713Z,11.90
2022-10-11T19:33:45.430Z,11.80
2022-10-11T19:36:15.228Z,11.80
2022-10-11T19:38:46.130Z,11.80
2022-10-11T19:41:15.566Z,11.70
2022-10-11T19:43:43.422Z,11.80
2022-10-11T19:46:20.158Z,11.80
2022-10-11T19:48:55.559Z,11.70
2022-10-11T19:51:26.620Z,11.80
2022-10-11T19:53:57.254Z,11.80
2022-10-11T19:56:26.217Z,11.70
2022-10-11T19:58:54.483Z,11.70
2022-10-11T20:01:24.285Z,11.70
2022-10-11T20:03:54.409Z,11.70
2022-10-11T20:06:25.046Z,11.80
2022-10-11T20:09:16.505Z,11.70
2022-10-11T20:11:41.400Z,11.70
2022-10-11T20:14:09.676Z,11.70
2022-10-11T20:16:37.488Z,11.70
2022-10-11T20:19:06.173Z,11.70
2022-10-11T20:21:35.651Z,11.80
2022-10-11T20:24:04.545Z,11.70
2022-10-11T20:26:33.148Z,11.70
2022-10-11T20:29:01.063Z,11.70
2022-10-11T20:31:32.017Z,11.60
2022-10-11T20:34:02.203Z,11.70
2022-10-11T20:36:31.059Z,11.70
2022-10-11T20:39:00.890Z,11.70
2022-10-11T20:41:31.629Z,11.70
2022-10-11T20:44:00.607Z,11.70
2022-10-11T20:46:31.378Z,11.60
2022-10-11T20:49:02.111Z,11.60
2022-10-11T20:51:31.140Z,11.60
2022-10-11T20:54:01.939Z,11.60
2022-10-11T20:56:30.757Z,11.50
2022-10-11T20:58:59.382Z,11.50
2022-10-11T21:01:29.272Z,11.50
2022-10-11T21:03:58.809Z,11.50
2022-10-11T21:06:26.924Z,11.50
2022-10-11T21:08:56.089Z,11.40
2022-10-11T21:11:27.505Z,11.50
2022-10-11T21:13:56.561Z,11.40
2022-10-11T21:16:24.614Z,11.50
2022-10-11T21:18:53.519Z,11.50
2022-10-11T21:21:23.357Z,11.50
2022-10-11T21:23:53.878Z,11.50
2022-10-11T21:26:22.063Z,11.50
2022-10-11T21:28:51.604Z,11.50
2022-10-11T21:31:21.372Z,11.50
2022-10-11T21:33:49.571Z,11.50
2022-10-11T21:36:19.297Z,11.40
2022-10-11T21:38:47.961Z,11.40
2022-10-11T21:41:17.666Z,11.40
2022-10-11T21:43:45.763Z,11.40
2022-10-11T21:46:19.526Z,11.40
2022-10-11T21:48:47.912Z,11.30
2022-10-11T21:51:18.050Z,11.30
2022-10-11T21:53:45.953Z,11.30
2022-10-11T21:56:13.891Z,11.30
2022-10-11T21:58:41.683Z,11.30
2022-10-11T22:01:11.246Z,11.30
2022-10-11T22:03:40.392Z,11.30
2022-10-11T22:06:08.233Z,11.40
2022-10-11T22:08:36.423Z,11.30
2022-10-11T22:11:04.273Z,11.30
2022-10-11T22:13:34.040Z,11.30
2022-10-11T22:16:04.495Z,11.30
2022-10-11T22:18:33.792Z,11.30
2022-10-11T22:21:08.371Z,11.30
2022-10-11T22:23:36.662Z,11.30
2022-10-11T22:26:05.408Z,11.30
2022-10-11T22:28:33.334Z,11.20
2022-10-11T22:31:01.557Z,11.30
2022-10-11T22:33:29.515Z,11.30
2022-10-11T22:35:58.534Z,11.30
2022-10-11T22:38:27.850Z,11.20
2022-10-11T22:40:58.826Z,11.20
2022-10-11T22:43:26.940Z,11.20
2022-10-11T22:45:54.708Z,11.20
2022-10-11T22:48:22.498Z,11.20
2022-10-11T22:50:50.323Z,11.30
2022-10-11T22:53:18.309Z,11.30
2022-10-11T22:55:48.226Z,11.30
2022-10-11T22:58:16.119Z,11.30
2022-10-11T23:00:44.389Z,11.30
2022-10-11T23:03:13.793Z,11.30
2022-10-11T23:05:41.603Z,11.30
2022-10-11T23:08:10.260Z,11.30
2022-10-11T23:10:39.385Z,11.30
2022-10-11T23:13:08.527Z,11.30
2022-10-11T23:15:40.141Z,11.30
2022-10-11T23:18:07.989Z,11.30
2022-10-11T23:20:35.743Z,11.30
2022-10-11T23:23:03.507Z,11.30
2022-10-11T23:25:31.275Z,11.30
2022-10-11T23:28:00.968Z,11.20
2022-10-11T23:30:30.826Z,11.20
2022-10-11T23:33:02.353Z,11.30
2022-10-11T23:35:30.569Z,11.20
2022-10-11T23:37:58.314Z,11.30
2022-10-11T23:40:26.100Z,11.30
2022-10-11T23:42:53.845Z,11.30
2022-10-11T23:45:21.603Z,11.30
2022-10-11T23:47:50.714Z,11.30
2022-10-11T23:50:18.751Z,11.30
2022-10-11T23:52:46.534Z,11.30
2022-10-11T23:55:14.345Z,11.30
2022-10-11T23:57:42.095Z,11.30
